Time;durP1;ratioP1;P1;durP2;ratioP2;P2;SDS_P1;SDS_P2;PMS_P1;PMS_P2;Temp;Humidity;BMP_temperature;BMP_pressure;BME280_temperature;BME280_humidity;BME280_pressure;Samples;Min_cycle;Max_cycle;Signal;HPM_P1;HPM_P2
2022/08/20 00:00:42;;;;;;;4.28;1.60;;;22.90;99.90;;;;;;5000017;28;20084;-73
2022/08/20 00:03:15;;;;;;;3.08;1.85;;;22.90;99.90;;;;;;4995945;28;20060;-73
2022/08/20 00:05:52;;;;;;;2.60;1.40;;;22.90;99.90;;;;;;4998193;28;20030;-73
2022/08/20 00:08:18;;;;;;;2.65;1.70;;;23.00;99.90;;;;;;4997265;28;20993;-73
2022/08/20 00:10:46;;;;;;;4.47;1.85;;;23.00;99.90;;;;;;5000925;28;20445;-72
2022/08/20 00:13:16;;;;;;;2.00;1.67;;;23.00;99.90;;;;;;5002093;28;20088;-73
2022/08/20 00:15:41;;;;;;;3.47;1.55;;;23.00;99.90;;;;;;4999988;28;20030;-73
2022/08/20 00:18:08;;;;;;;3.95;1.67;;;22.90;99.90;;;;;;4998496;28;20054;-73
2022/08/20 00:20:39;;;;;;;4.40;1.50;;;22.90;99.90;;;;;;4991257;28;20092;-72
2022/08/20 00:23:07;;;;;;;4.20;1.70;;;22.90;99.90;;;;;;4995778;28;20034;-73
2022/08/20 00:25:33;;;;;;;2.92;1.33;;;22.90;99.90;;;;;;4979326;28;20053;-72
2022/08/20 00:28:02;;;;;;;4.55;1.48;;;22.90;99.90;;;;;;5000173;28;20457;-74
2022/08/20 00:30:30;;;;;;;3.08;1.42;;;22.90;99.90;;;;;;4980659;28;20031;-73
2022/08/20 00:33:01;;;;;;;3.15;1.30;;;22.80;99.90;;;;;;4999254;28;20057;-73
2022/08/20 00:35:31;;;;;;;2.90;1.90;;;22.80;99.90;;;;;;4998584;28;20498;-72
2022/08/20 00:37:57;;;;;;;3.45;1.50;;;22.90;99.90;;;;;;5000538;28;20532;-73
2022/08/20 00:40:27;;;;;;;3.58;1.70;;;22.90;99.90;;;;;;4998760;28;20037;-72
2022/08/20 00:42:57;;;;;;;1.58;1.27;;;22.90;99.90;;;;;;4987807;28;20030;-73
2022/08/20 00:45:25;;;;;;;3.72;1.30;;;22.90;99.90;;;;;;5000715;28;20038;-73
2022/08/20 00:47:53;;;;;;;2.45;1.30;;;22.90;99.90;;;;;;5000478;28;20072;-73
2022/08/20 00:50:25;;;;;;;2.17;1.27;;;22.90;99.90;;;;;;4979423;28;20049;-73
2022/08/20 00:52:52;;;;;;;2.90;1.45;;;22.90;99.90;;;;;;4998936;28;20046;-72
2022/08/20 00:55:22;;;;;;;4.10;1.20;;;22.90;99.90;;;;;;4999073;28;20586;-72
2022/08/20 00:57:53;;;;;;;2.47;1.20;;;22.90;99.90;;;;;;4999581;28;20029;-73
2022/08/20 01:00:50;;;;;;;4.43;1.40;;;22.90;99.90;;;;;;4992461;28;20037;-73
2022/08/20 01:03:19;;;;;;;3.85;1.35;;;22.80;99.90;;;;;;4994238;28;20092;-72
2022/08/20 01:05:48;;;;;;;2.85;1.73;;;22.80;99.90;;;;;;4998604;28;20045;-72
2022/08/20 01:08:18;;;;;;;3.78;1.70;;;22.90;99.90;;;;;;5000519;28;20038;-72
2022/08/20 01:10:47;;;;;;;3.58;1.65;;;22.80;99.90;;;;;;4998433;28;20477;-73
2022/08/20 01:13:17;;;;;;;3.33;1.40;;;22.80;99.90;;;;;;4980336;28;20510;-73
2022/08/20 01:15:46;;;;;;;3.38;1.42;;;22.70;99.90;;;;;;4998814;28;20770;-73
2022/08/20 01:18:16;;;;;;;4.32;1.70;;;22.70;99.90;;;;;;4996794;28;20150;-73
2022/08/20 01:20:48;;;;;;;2.15;1.30;;;22.70;99.90;;;;;;4984872;28;20037;-73
2022/08/20 01:23:33;;;;;;;3.15;1.33;;;22.70;99.90;;;;;;4996129;28;20046;-73
2022/08/20 01:26:08;;;;;;;3.88;1.50;;;22.80;99.90;;;;;;4999890;28;20444;-73
2022/08/20 01:28:55;;;;;;;3.63;1.73;;;22.70;99.90;;;;;;5001699;28;20069;-72
2022/08/20 01:31:26;;;;;;;3.40;1.30;;;22.70;99.90;;;;;;4997040;28;20030;-73
2022/08/20 01:33:54;;;;;;;5.32;1.60;;;22.70;99.90;;;;;;5000257;28;20049;-73
2022/08/20 01:36:29;;;;;;;8.65;1.80;;;22.60;99.90;;;;;;4979908;28;20474;-72
2022/08/20 01:38:55;;;;;;;7.30;1.40;;;22.60;99.90;;;;;;4997245;28;20034;-72
2022/08/20 01:41:21;;;;;;;3.67;1.25;;;22.60;99.90;;;;;;4997339;28;20026;-72
2022/08/20 01:43:55;;;;;;;3.33;1.65;;;22.60;99.90;;;;;;5000100;28;20042;-72
2022/08/20 01:46:31;;;;;;;3.55;1.35;;;22.60;99.90;;;;;;4999471;28;20051;-73
2022/08/20 01:48:58;;;;;;;3.85;1.73;;;22.60;99.90;;;;;;5000520;28;20040;-73
2022/08/20 01:51:28;;;;;;;6.15;1.45;;;22.60;99.90;;;;;;4997485;28;20109;-74
2022/08/20 01:53:56;;;;;;;5.63;1.70;;;22.60;99.90;;;;;;4995964;28;20488;-73
2022/08/20 01:56:25;;;;;;;2.85;1.45;;;22.60;99.90;;;;;;4995957;28;20475;-73
2022/08/20 01:58:53;;;;;;;6.85;1.60;;;22.60;99.90;;;;;;4979400;28;20080;-73
2022/08/20 02:01:33;;;;;;;4.85;1.40;;;22.60;99.90;;;;;;5001805;28;20026;-73
2022/08/20 02:04:01;;;;;;;5.43;1.83;;;22.60;99.90;;;;;;5002128;28;20096;-71
2022/08/20 02:06:29;;;;;;;4.57;1.30;;;22.60;99.90;;;;;;5000171;28;20046;-73
2022/08/20 02:08:58;;;;;;;4.18;1.50;;;22.50;99.90;;;;;;5001177;28;20044;-72
2022/08/20 02:11:25;;;;;;;3.33;1.40;;;22.50;99.90;;;;;;4997250;28;20145;-73
2022/08/20 02:13:52;;;;;;;2.80;1.30;;;22.60;99.90;;;;;;4984977;28;20521;-73
2022/08/20 02:16:38;;;;;;;5.55;1.40;;;22.50;99.90;;;;;;4999255;28;20023;-73
2022/08/20 02:19:11;;;;;;;2.97;1.45;;;22.50;99.90;;;;;;5001966;28;20425;-73
2022/08/20 02:21:42;;;;;;;3.47;1.58;;;22.50;99.90;;;;;;5004589;28;20022;-73
2022/08/20 02:24:08;;;;;;;4.18;1.65;;;22.60;99.90;;;;;;4999573;28;20739;-73
2022/08/20 02:26:36;;;;;;;3.80;1.73;;;22.50;99.90;;;;;;5003453;28;20504;-72
2022/08/20 02:29:04;;;;;;;3.28;1.48;;;22.50;99.90;;;;;;5003346;28;20053;-73
2022/08/20 02:31:32;;;;;;;3.63;1.30;;;22.50;99.90;;;;;;5001533;28;20045;-72
2022/08/20 02:33:58;;;;;;;4.80;1.25;;;22.50;99.90;;;;;;4985742;28;20050;-73
2022/08/20 02:36:25;;;;;;;4.15;1.52;;;22.50;99.90;;;;;;5005939;28;20068;-73
2022/08/20 02:38:51;;;;;;;5.28;1.30;;;22.50;99.90;;;;;;5003784;28;20514;-72
2022/08/20 02:41:20;;;;;;;1.92;1.23;;;22.50;99.90;;;;;;4982141;28;20117;-72
2022/08/20 02:43:45;;;;;;;1.67;1.20;;;22.60;99.90;;;;;;4997935;28;20072;-72
2022/08/20 02:46:13;;;;;;;2.03;1.17;;;22.60;99.90;;;;;;5000144;28;20069;-72
2022/08/20 02:48:39;;;;;;;4.50;1.55;;;22.50;99.90;;;;;;4992439;28;20486;-72
2022/08/20 02:51:05;;;;;;;4.03;1.58;;;22.60;99.90;;;;;;5000870;28;20104;-72
2022/08/20 02:53:37;;;;;;;3.25;1.10;;;22.60;99.90;;;;;;5003403;28;20034;-73
2022/08/20 02:56:05;;;;;;;8.98;1.65;;;22.60;99.90;;;;;;4998510;28;20502;-73
2022/08/20 02:58:32;;;;;;;4.05;1.30;;;22.50;99.90;;;;;;4985041;28;20034;-73
2022/08/20 03:00:58;;;;;;;3.45;1.30;;;22.60;99.90;;;;;;4984107;28;20510;-74
2022/08/20 03:03:24;;;;;;;2.42;1.08;;;22.60;99.90;;;;;;5000005;28;20037;-73
2022/08/20 03:05:53;;;;;;;4.53;1.33;;;22.60;99.90;;;;;;5004224;28;20385;-73
2022/08/20 03:08:20;;;;;;;4.30;1.58;;;22.60;99.90;;;;;;5002516;28;20049;-71
2022/08/20 03:10:48;;;;;;;5.82;1.60;;;22.50;99.90;;;;;;5003496;28;20041;-72
2022/08/20 03:13:15;;;;;;;4.47;1.70;;;22.60;99.90;;;;;;5001929;28;20045;-73
2022/08/20 03:15:49;;;;;;;3.83;1.60;;;22.60;99.90;;;;;;4984742;28;20572;-73
2022/08/20 03:18:16;;;;;;;2.78;1.30;;;22.50;99.90;;;;;;5005062;28;20030;-73
2022/08/20 03:20:42;;;;;;;4.65;1.50;;;22.50;99.90;;;;;;5000099;28;20037;-73
2022/08/20 03:23:08;;;;;;;2.63;1.10;;;22.50;99.90;;;;;;4999696;28;20026;-73
2022/08/20 03:25:34;;;;;;;2.90;1.15;;;22.50;99.90;;;;;;5001908;28;20045;-72
2022/08/20 03:28:00;;;;;;;5.45;1.60;;;22.50;99.90;;;;;;5001770;28;20042;-72
2022/08/20 03:30:27;;;;;;;3.95;1.40;;;22.50;99.90;;;;;;5002841;28;20061;-73
2022/08/20 03:32:54;;;;;;;3.10;1.45;;;22.40;99.90;;;;;;4985774;28;20034;-73
2022/08/20 03:35:23;;;;;;;4.05;1.23;;;22.30;99.90;;;;;;5002174;28;20038;-73
2022/08/20 03:37:50;;;;;;;3.80;1.17;;;22.30;99.90;;;;;;4985046;28;20034;-72
2022/08/20 03:40:25;;;;;;;3.97;1.15;;;22.30;99.90;;;;;;5001266;28;20030;-73
2022/08/20 03:42:51;;;;;;;4.07;1.45;;;22.30;99.90;;;;;;4986401;28;20037;-72
2022/08/20 03:45:21;;;;;;;3.00;1.10;;;22.40;99.90;;;;;;5003509;28;20042;-72
2022/08/20 03:47:48;;;;;;;2.05;1.17;;;22.50;99.90;;;;;;5002092;28;20042;-73
2022/08/20 03:50:27;;;;;;;5.15;1.30;;;22.50;99.90;;;;;;4999714;28;20125;-72
2022/08/20 03:52:54;;;;;;;2.58;1.17;;;22.50;99.90;;;;;;4982124;28;20030;-73
2022/08/20 03:55:21;;;;;;;4.35;1.13;;;22.50;99.90;;;;;;4998625;28;20038;-72
2022/08/20 03:57:59;;;;;;;4.25;1.33;;;22.50;99.90;;;;;;5001612;28;20050;-73
2022/08/20 04:00:35;;;;;;;2.67;1.33;;;22.50;99.90;;;;;;4996985;28;20365;-72
2022/08/20 04:03:01;;;;;;;4.95;1.23;;;22.50;99.90;;;;;;4989104;28;20026;-73
2022/08/20 04:05:30;;;;;;;3.30;1.30;;;22.50;99.90;;;;;;4982549;28;20053;-72
2022/08/20 04:08:00;;;;;;;3.53;1.30;;;22.40;99.90;;;;;;4999744;28;20399;-72
2022/08/20 04:10:26;;;;;;;3.20;1.38;;;22.30;99.90;;;;;;4997713;28;20110;-73
2022/08/20 04:12:51;;;;;;;4.00;1.50;;;22.20;99.90;;;;;;5001069;28;20188;-73
2022/08/20 04:15:19;;;;;;;2.53;1.40;;;22.20;99.90;;;;;;4997531;28;20033;-73
2022/08/20 04:17:49;;;;;;;4.43;1.50;;;22.10;99.90;;;;;;5000644;28;20043;-73
2022/08/20 04:20:21;;;;;;;3.20;1.40;;;22.10;99.90;;;;;;4990907;28;20069;-73
2022/08/20 04:22:48;;;;;;;4.43;1.58;;;22.00;99.90;;;;;;4998442;28;20633;-73
2022/08/20 04:25:14;;;;;;;5.30;1.50;;;21.90;99.90;;;;;;4995657;28;20517;-73
2022/08/20 04:27:40;;;;;;;2.05;1.15;;;21.90;99.90;;;;;;5004060;28;20080;-72
2022/08/20 04:30:10;;;;;;;1.60;1.27;;;21.90;99.90;;;;;;4997477;28;20377;-72
2022/08/20 04:32:40;;;;;;;3.78;1.33;;;21.90;99.90;;;;;;5001622;28;20088;-73
2022/08/20 04:35:10;;;;;;;2.30;1.40;;;21.90;99.90;;;;;;4982441;28;20038;-73
2022/08/20 04:37:38;;;;;;;3.97;1.10;;;21.90;99.90;;;;;;4986661;28;20038;-73
2022/08/20 04:42:56;;;;;;;3.08;1.30;;;21.90;99.90;;;;;;5005504;28;20057;-72
2022/08/20 04:45:23;;;;;;;2.53;1.48;;;21.90;99.90;;;;;;4999104;28;20462;-73
2022/08/20 04:47:50;;;;;;;3.95;1.70;;;21.90;99.90;;;;;;4988529;28;20109;-73
2022/08/20 04:50:18;;;;;;;4.80;1.60;;;21.90;99.90;;;;;;4983787;28;20072;-73
2022/08/20 04:52:44;;;;;;;2.20;1.13;;;21.80;99.90;;;;;;5001936;28;20033;-72
2022/08/20 04:55:10;;;;;;;3.70;1.38;;;21.80;99.90;;;;;;5001128;28;20102;-73
2022/08/20 04:57:37;;;;;;;4.93;1.70;;;21.80;99.90;;;;;;5003544;28;20038;-74
2022/08/20 05:00:09;;;;;;;4.82;1.25;;;21.80;99.90;;;;;;4998837;28;20508;-73
2022/08/20 05:02:36;;;;;;;3.88;1.27;;;21.90;99.90;;;;;;4998649;28;20030;-72
2022/08/20 05:05:04;;;;;;;3.60;1.42;;;22.00;99.90;;;;;;4996857;28;20069;-72
2022/08/20 05:07:30;;;;;;;3.17;1.50;;;21.90;99.90;;;;;;4999341;28;20029;-73
2022/08/20 05:09:56;;;;;;;2.00;1.35;;;21.90;99.90;;;;;;5001373;28;20034;-73
2022/08/20 05:12:22;;;;;;;5.50;1.10;;;21.90;99.90;;;;;;4984693;28;20561;-72
2022/08/20 05:14:48;;;;;;;2.33;1.20;;;22.00;99.90;;;;;;4999840;28;20058;-73
2022/08/20 05:17:16;;;;;;;3.13;1.20;;;22.00;99.90;;;;;;4994689;28;20035;-72
2022/08/20 05:19:42;;;;;;;3.72;1.17;;;22.00;99.90;;;;;;5002738;28;20057;-73
2022/08/20 05:22:08;;;;;;;4.82;1.30;;;22.10;99.90;;;;;;4987239;28;20030;-73
2022/08/20 05:24:33;;;;;;;2.83;1.27;;;22.20;99.90;;;;;;4996897;28;20114;-72
2022/08/20 05:27:01;;;;;;;5.18;1.75;;;22.20;99.90;;;;;;4986057;28;20125;-73
2022/08/20 05:29:27;;;;;;;2.30;1.20;;;22.30;99.90;;;;;;4996528;28;20053;-73
2022/08/20 05:31:55;;;;;;;4.65;1.20;;;22.40;99.90;;;;;;4988346;28;20061;-73
2022/08/20 05:34:21;;;;;;;3.50;1.13;;;22.50;99.90;;;;;;4998047;28;20037;-72
2022/08/20 05:36:50;;;;;;;3.88;1.55;;;22.60;99.90;;;;;;5004451;28;20030;-73
2022/08/20 05:39:18;;;;;;;2.63;0.95;;;22.60;99.90;;;;;;4976898;28;20620;-73
2022/08/20 05:41:44;;;;;;;3.97;1.00;;;22.70;99.90;;;;;;4989463;28;20250;-72
2022/08/20 05:44:12;;;;;;;4.50;1.10;;;22.80;99.90;;;;;;5003806;28;20089;-73
2022/08/20 05:46:40;;;;;;;2.72;1.25;;;22.80;99.90;;;;;;4987113;28;20089;-73
2022/08/20 05:49:10;;;;;;;2.38;1.27;;;22.70;99.90;;;;;;5003637;28;20089;-72
2022/08/20 05:51:36;;;;;;;5.30;1.90;;;22.70;99.90;;;;;;4984339;28;20350;-73
2022/08/20 05:54:03;;;;;;;4.97;1.52;;;22.60;99.90;;;;;;5002296;28;20176;-73
2022/08/20 05:56:29;;;;;;;3.03;1.48;;;22.60;99.90;;;;;;4991871;28;20631;-73
2022/08/20 05:58:55;;;;;;;4.03;1.50;;;22.50;99.90;;;;;;5005503;28;20564;-73
2022/08/20 06:01:21;;;;;;;1.67;1.35;;;22.60;99.90;;;;;;4985511;28;20334;-73
2022/08/20 06:06:32;;;;;;;1.88;1.17;;;22.70;99.90;;;;;;5000353;28;20038;-73
2022/08/20 06:08:59;;;;;;;3.17;1.20;;;22.80;99.90;;;;;;5005404;28;20037;-72
2022/08/20 06:11:25;;;;;;;2.22;1.20;;;22.90;99.90;;;;;;4989048;28;20415;-72
2022/08/20 06:13:51;;;;;;;1.65;1.20;;;22.90;99.90;;;;;;5005714;28;20023;-73
2022/08/20 06:16:17;;;;;;;2.45;1.05;;;23.00;99.90;;;;;;5002073;28;20034;-73
2022/08/20 06:18:42;;;;;;;3.15;1.25;;;23.30;99.90;;;;;;4987502;28;20213;-73
2022/08/20 06:21:08;;;;;;;3.17;1.10;;;23.30;99.90;;;;;;5001863;28;20110;-73
2022/08/20 06:23:35;;;;;;;2.83;1.10;;;23.30;99.90;;;;;;5001367;28;20490;-72
2022/08/20 06:26:01;;;;;;;3.75;1.15;;;23.40;99.90;;;;;;4998179;28;20123;-72
2022/08/20 06:28:27;;;;;;;5.13;1.25;;;23.40;99.90;;;;;;5003611;28;20037;-73
2022/08/20 06:30:53;;;;;;;3.03;1.27;;;23.40;99.90;;;;;;4983106;28;20066;-73
2022/08/20 06:33:19;;;;;;;3.80;1.20;;;23.40;99.90;;;;;;5001824;28;20030;-73
2022/08/20 06:35:44;;;;;;;1.75;1.10;;;23.50;99.90;;;;;;5006254;28;20527;-73
2022/08/20 06:38:11;;;;;;;2.40;1.20;;;23.60;99.90;;;;;;4989918;28;20348;-73
2022/08/20 06:40:37;;;;;;;3.22;1.50;;;23.60;99.90;;;;;;4984167;28;20130;-74
2022/08/20 06:43:03;;;;;;;4.00;1.10;;;23.70;99.90;;;;;;4990506;28;20045;-73
2022/08/20 06:45:31;;;;;;;2.17;0.80;;;23.70;99.90;;;;;;5003371;28;20042;-72
2022/08/20 06:47:59;;;;;;;4.45;1.15;;;23.80;99.90;;;;;;5003851;28;20049;-73
2022/08/20 06:50:45;;;;;;;2.45;1.00;;;23.80;99.90;;;;;;5004167;28;20045;-73
2022/08/20 06:53:13;;;;;;;3.78;1.10;;;23.90;99.90;;;;;;4999284;28;20044;-73
2022/08/20 06:55:43;;;;;;;3.50;1.15;;;24.00;99.90;;;;;;5004815;28;20030;-74
2022/08/20 06:58:10;;;;;;;2.10;0.95;;;24.00;99.90;;;;;;4988825;28;20042;-73
2022/08/20 07:00:39;;;;;;;3.92;1.30;;;24.00;99.90;;;;;;5003744;28;20104;-72
2022/08/20 07:03:06;;;;;;;4.18;1.17;;;24.10;99.90;;;;;;4997874;28;20425;-73
2022/08/20 07:05:34;;;;;;;2.88;1.50;;;24.10;99.90;;;;;;5000185;28;20034;-73
2022/08/20 07:08:00;;;;;;;2.58;1.02;;;24.10;99.90;;;;;;4998311;28;20046;-72
2022/08/20 07:10:27;;;;;;;1.67;0.90;;;24.20;99.90;;;;;;5001177;28;20041;-73
2022/08/20 07:12:53;;;;;;;3.58;1.20;;;24.20;99.90;;;;;;5002888;28;20038;-72
2022/08/20 07:15:21;;;;;;;4.97;1.08;;;24.30;99.90;;;;;;4992554;28;20103;-73
2022/08/20 07:17:55;;;;;;;1.52;0.90;;;24.20;99.90;;;;;;5002861;28;20048;-73
2022/08/20 07:20:22;;;;;;;2.17;1.10;;;24.30;99.90;;;;;;4996343;28;20097;-73
2022/08/20 07:22:48;;;;;;;3.22;1.42;;;24.30;99.90;;;;;;5003365;28;20065;-72
2022/08/20 07:25:17;;;;;;;2.00;1.10;;;24.30;99.90;;;;;;5004520;28;20064;-72
2022/08/20 07:27:44;;;;;;;7.03;1.25;;;24.30;99.90;;;;;;5002094;28;20033;-73
2022/08/20 07:33:13;;;;;;;5.70;1.02;;;24.40;99.90;;;;;;5001786;28;20374;-73
2022/08/20 07:35:39;;;;;;;4.47;1.27;;;24.40;99.90;;;;;;4986670;28;20044;-72
2022/08/20 07:38:06;;;;;;;1.83;1.10;;;24.50;99.90;;;;;;4999927;28;20034;-74
2022/08/20 07:40:34;;;;;;;5.05;1.20;;;24.50;99.90;;;;;;5005232;28;20498;-73
2022/08/20 07:43:01;;;;;;;5.22;1.35;;;24.70;99.90;;;;;;5002404;28;20066;-72
2022/08/20 07:45:28;;;;;;;2.38;1.10;;;24.60;99.90;;;;;;4986137;28;20050;-72
2022/08/20 07:47:54;;;;;;;5.43;1.38;;;24.70;99.90;;;;;;4989638;28;20109;-73
2022/08/20 07:50:25;;;;;;;5.03;1.30;;;24.80;99.90;;;;;;4982828;28;20035;-73
2022/08/20 07:52:52;;;;;;;2.00;0.88;;;25.00;99.90;;;;;;5006198;28;20048;-74
2022/08/20 07:55:20;;;;;;;1.25;1.00;;;25.00;99.90;;;;;;5000327;28;20096;-72
2022/08/20 07:57:49;;;;;;;1.42;0.80;;;25.10;99.90;;;;;;4990062;28;20030;-72
2022/08/20 08:00:16;;;;;;;1.15;0.80;;;25.20;99.90;;;;;;4999893;28;20098;-73
2022/08/20 08:02:42;;;;;;;1.63;0.98;;;25.30;99.90;;;;;;5003632;28;20034;-73
2022/08/20 08:05:08;;;;;;;1.63;0.85;;;25.30;99.90;;;;;;4989426;28;20042;-73
2022/08/20 08:07:35;;;;;;;4.20;1.10;;;25.40;99.90;;;;;;4999008;28;20084;-72
2022/08/20 08:10:03;;;;;;;4.65;0.98;;;25.50;99.90;;;;;;5003317;28;20031;-72
2022/08/20 08:12:42;;;;;;;4.93;0.80;;;25.50;99.90;;;;;;5001357;28;20037;-73
2022/08/20 08:15:13;;;;;;;1.75;0.80;;;25.50;99.90;;;;;;4980593;28;20043;-73
2022/08/20 08:17:40;;;;;;;1.75;1.20;;;25.60;99.90;;;;;;4983817;28;20037;-73
2022/08/20 08:20:07;;;;;;;4.45;1.08;;;25.80;99.90;;;;;;4997617;28;20648;-73
2022/08/20 08:22:33;;;;;;;2.92;1.15;;;25.90;99.90;;;;;;5002072;28;20541;-73
2022/08/20 08:25:01;;;;;;;1.55;0.82;;;25.90;99.90;;;;;;5000808;28;20113;-72
2022/08/20 08:27:32;;;;;;;1.80;1.08;;;25.90;99.90;;;;;;4983318;28;20774;-73
2022/08/20 08:30:02;;;;;;;2.47;0.85;;;25.80;99.90;;;;;;4990681;28;20034;-73
2022/08/20 08:32:30;;;;;;;4.32;0.90;;;26.00;99.90;;;;;;4985613;28;20193;-73
2022/08/20 08:34:55;;;;;;;3.17;0.90;;;25.80;99.90;;;;;;5003130;28;20039;-73
2022/08/20 08:37:22;;;;;;;1.58;1.10;;;26.20;99.90;;;;;;5004268;28;20026;-71
2022/08/20 08:39:48;;;;;;;1.55;0.98;;;27.80;99.90;;;;;;5002573;28;20053;-70
2022/08/20 08:42:34;;;;;;;1.95;1.00;;;28.70;99.90;;;;;;4999478;28;20390;-72
2022/08/20 08:45:03;;;;;;;3.08;1.13;;;29.90;99.90;;;;;;5001447;28;20062;-71
2022/08/20 08:47:36;;;;;;;3.38;0.98;;;30.60;99.90;;;;;;4969549;28;20038;-72
2022/08/20 08:50:06;;;;;;;4.22;1.20;;;30.10;99.90;;;;;;4981120;28;20034;-72
2022/08/20 08:52:39;;;;;;;2.20;1.08;;;31.00;99.90;;;;;;4985902;28;20034;-72
2022/08/20 08:55:08;;;;;;;3.00;1.00;;;30.70;99.90;;;;;;5003748;28;20071;-71
2022/08/20 08:57:34;;;;;;;4.40;1.10;;;31.10;99.90;;;;;;4990617;28;20029;-72
2022/08/20 09:00:15;;;;;;;5.72;1.20;;;31.30;99.90;;;;;;4985773;28;20506;-72
2022/08/20 09:03:03;;;;;;;1.65;1.20;;;31.40;99.90;;;;;;5001347;28;20048;-72
2022/08/20 09:05:42;;;;;;;4.50;1.42;;;29.90;99.90;;;;;;4985806;28;20029;-71
2022/08/20 09:08:12;;;;;;;4.20;1.20;;;29.20;99.90;;;;;;5000658;28;20042;-71
2022/08/20 09:10:38;;;;;;;4.80;1.65;;;29.50;99.90;;;;;;5002858;28;20181;-71
2022/08/20 09:13:05;;;;;;;3.13;1.10;;;30.80;99.90;;;;;;5003112;28;20034;-71
2022/08/20 09:15:31;;;;;;;2.75;1.20;;;30.90;99.90;;;;;;4990989;28;20490;-72
2022/08/20 09:17:57;;;;;;;3.63;1.25;;;31.80;99.90;;;;;;4985147;28;20512;-72
2022/08/20 09:20:23;;;;;;;5.00;1.70;;;31.70;99.90;;;;;;4989305;28;20049;-72
2022/08/20 09:22:49;;;;;;;5.40;1.58;;;30.60;99.90;;;;;;4985756;28;20449;-72
2022/08/20 09:25:15;;;;;;;3.40;1.40;;;31.80;99.90;;;;;;4988224;28;20051;-73
2022/08/20 09:27:41;;;;;;;4.75;1.85;;;32.30;99.90;;;;;;5003531;28;20034;-72
2022/08/20 09:30:08;;;;;;;2.55;1.40;;;30.50;99.90;;;;;;4997608;28;20023;-72
2022/08/20 09:32:34;;;;;;;2.63;1.60;;;31.00;99.90;;;;;;4991925;28;20031;-73
2022/08/20 09:35:00;;;;;;;3.80;1.38;;;31.50;99.90;;;;;;5005734;28;20041;-72
2022/08/20 09:37:29;;;;;;;3.47;1.25;;;30.50;99.90;;;;;;4981118;28;20408;-71
2022/08/20 09:39:55;;;;;;;4.20;1.45;;;29.90;99.90;;;;;;5002917;28;20030;-71
2022/08/20 09:42:32;;;;;;;4.32;1.60;;;30.90;99.90;;;;;;5005108;28;20460;-72
2022/08/20 09:44:59;;;;;;;3.35;1.63;;;31.60;99.90;;;;;;5004260;28;20030;-71
2022/08/20 09:47:25;;;;;;;3.20;1.55;;;31.40;99.90;;;;;;5004493;28;20033;-71
2022/08/20 09:49:52;;;;;;;3.10;1.30;;;30.80;99.90;;;;;;5005019;28;20061;-71
2022/08/20 09:52:30;;;;;;;2.50;1.20;;;31.00;99.90;;;;;;4983961;28;20027;-73
2022/08/20 09:55:02;;;;;;;2.92;1.40;;;31.10;99.90;;;;;;5005773;28;20034;-72
2022/08/20 09:57:30;;;;;;;2.90;1.25;;;31.60;99.90;;;;;;4987142;28;20030;-71
2022/08/20 10:00:03;;;;;;;3.50;1.23;;;31.60;99.90;;;;;;4992372;28;20129;-73
2022/08/20 10:02:29;;;;;;;2.17;1.20;;;31.50;99.90;;;;;;5004917;28;20046;-72
2022/08/20 10:04:55;;;;;;;5.18;1.40;;;30.80;99.90;;;;;;4988120;28;20135;-72
2022/08/20 10:07:21;;;;;;;1.75;1.20;;;30.70;99.90;;;;;;4983069;28;20037;-71
2022/08/20 10:09:48;;;;;;;3.03;1.30;;;31.70;99.90;;;;;;5004361;28;20034;-72
2022/08/20 10:12:13;;;;;;;1.92;1.10;;;30.50;99.90;;;;;;4965165;28;20611;-72
2022/08/20 10:14:41;;;;;;;6.78;1.25;;;31.70;99.90;;;;;;4986895;28;20022;-72
2022/08/20 10:17:06;;;;;;;2.55;1.38;;;31.40;99.90;;;;;;5006454;28;20042;-71
2022/08/20 10:19:32;;;;;;;4.55;1.27;;;31.50;99.90;;;;;;4982507;28;20037;-72
2022/08/20 10:21:59;;;;;;;2.15;1.20;;;31.70;99.90;;;;;;5002772;28;20026;-70
2022/08/20 10:24:26;;;;;;;4.65;1.13;;;30.80;99.90;;;;;;4983353;28;20108;-72
2022/08/20 10:27:00;;;;;;;3.42;1.30;;;30.50;99.90;;;;;;5000792;28;20125;-72
2022/08/20 10:29:29;;;;;;;4.50;1.20;;;30.00;99.90;;;;;;5000454;28;20470;-71
2022/08/20 10:31:55;;;;;;;2.85;1.08;;;29.90;99.90;;;;;;5004707;28;20110;-72
2022/08/20 10:34:23;;;;;;;7.03;1.20;;;29.40;99.90;;;;;;5006764;28;20034;-72
2022/08/20 10:36:48;;;;;;;3.80;1.13;;;29.70;99.90;;;;;;5009739;28;20030;-72
2022/08/20 10:39:15;;;;;;;3.72;1.25;;;29.50;99.90;;;;;;5003092;28;20129;-73
2022/08/20 10:41:41;;;;;;;2.97;1.50;;;29.60;99.90;;;;;;4995391;28;20053;-71
2022/08/20 10:44:07;;;;;;;1.20;1.10;;;29.20;99.90;;;;;;4983822;28;20477;-70
2022/08/20 10:46:33;;;;;;;2.20;1.33;;;29.30;99.90;;;;;;5003823;28;20040;-72
2022/08/20 10:48:59;;;;;;;4.65;1.20;;;30.00;99.90;;;;;;5003209;28;20068;-72
2022/08/20 10:51:25;;;;;;;3.15;1.17;;;30.60;99.90;;;;;;5004737;28;20417;-72
2022/08/20 10:53:51;;;;;;;3.95;1.50;;;30.20;99.90;;;;;;5002061;28;20125;-71
2022/08/20 10:56:16;;;;;;;2.58;1.40;;;30.60;99.90;;;;;;5002390;28;20052;-72
2022/08/20 10:58:43;;;;;;;3.22;1.17;;;30.80;99.90;;;;;;5003648;28;20101;-71
2022/08/20 11:01:08;;;;;;;4.28;1.38;;;30.60;99.90;;;;;;4991721;28;20142;-71
2022/08/20 11:03:34;;;;;;;2.85;1.10;;;30.80;99.90;;;;;;5000577;28;20125;-72
2022/08/20 11:06:01;;;;;;;3.08;1.20;;;30.80;99.90;;;;;;5004362;28;20038;-72
2022/08/20 11:08:28;;;;;;;2.85;1.35;;;31.10;99.90;;;;;;4990644;28;20377;-71
2022/08/20 11:10:53;;;;;;;4.82;1.38;;;30.60;99.90;;;;;;5001234;28;20085;-71
2022/08/20 11:13:21;;;;;;;5.50;1.40;;;29.80;99.90;;;;;;4990443;28;20084;-72
2022/08/20 11:15:47;;;;;;;3.65;1.40;;;29.80;99.90;;;;;;4988866;28;20041;-73
2022/08/20 11:18:14;;;;;;;3.05;1.67;;;29.80;99.90;;;;;;5001266;28;20038;-72
2022/08/20 11:20:39;;;;;;;4.13;1.45;;;30.00;99.90;;;;;;4983786;28;20038;-72
2022/08/20 11:23:05;;;;;;;3.70;1.23;;;29.50;99.90;;;;;;5003982;28;20038;-72
2022/08/20 11:25:31;;;;;;;2.05;1.10;;;30.80;99.90;;;;;;5001103;28;20121;-71
2022/08/20 11:27:57;;;;;;;4.47;1.30;;;31.20;99.90;;;;;;5004256;28;20107;-72
2022/08/20 11:30:30;;;;;;;3.10;1.38;;;31.80;99.90;;;;;;4998629;28;20114;-71
2022/08/20 11:32:58;;;;;;;3.33;1.27;;;31.70;99.90;;;;;;4984030;28;20030;-71
2022/08/20 11:35:26;;;;;;;3.15;1.40;;;31.00;99.90;;;;;;5003108;28;20036;-72
2022/08/20 11:37:54;;;;;;;3.38;1.20;;;31.30;99.90;;;;;;4978908;28;20044;-72
2022/08/20 11:40:20;;;;;;;2.05;1.20;;;30.80;99.90;;;;;;4979848;28;20093;-71
2022/08/20 11:42:46;;;;;;;3.40;1.63;;;31.20;99.90;;;;;;5002495;28;20137;-71
2022/08/20 11:45:13;;;;;;;3.83;1.40;;;30.50;99.90;;;;;;5001296;28;20061;-72
2022/08/20 11:47:40;;;;;;;3.17;1.40;;;31.10;99.90;;;;;;4999949;28;20045;-71
2022/08/20 11:50:13;;;;;;;1.40;1.25;;;32.10;99.90;;;;;;4969279;28;20136;-70
2022/08/20 11:52:39;;;;;;;2.63;1.20;;;31.40;99.90;;;;;;5004270;28;20058;-72
2022/08/20 11:55:08;;;;;;;4.47;1.50;;;32.10;99.90;;;;;;4997344;28;20077;-70
2022/08/20 11:57:35;;;;;;;2.53;1.30;;;32.20;99.90;;;;;;5001933;28;20034;-72
2022/08/20 12:00:08;;;;;;;4.85;1.20;;;32.10;99.90;;;;;;5002787;28;20038;-72
2022/08/20 12:02:35;;;;;;;4.53;1.52;;;32.50;99.90;;;;;;4975288;28;20363;-72
2022/08/20 12:05:01;;;;;;;3.28;1.40;;;31.60;99.90;;;;;;4986951;28;20141;-71
2022/08/20 12:07:27;;;;;;;4.07;1.50;;;30.80;99.90;;;;;;4984916;28;20537;-71
2022/08/20 12:09:53;;;;;;;3.10;1.50;;;31.20;99.90;;;;;;5001703;28;20069;-72
2022/08/20 12:12:22;;;;;;;7.90;1.10;;;30.80;99.90;;;;;;5000482;28;20062;-72
2022/08/20 12:14:52;;;;;;;3.17;1.42;;;32.00;99.90;;;;;;5002524;28;20100;-72
2022/08/20 12:17:23;;;;;;;2.88;1.30;;;31.10;99.90;;;;;;4983903;28;20042;-72
2022/08/20 12:19:51;;;;;;;3.55;1.67;;;31.60;99.90;;;;;;4987060;28;20026;-71
2022/08/20 12:22:17;;;;;;;5.07;2.00;;;31.50;99.90;;;;;;4990337;28;20057;-72
2022/08/20 12:24:43;;;;;;;4.85;1.30;;;31.80;99.80;;;;;;5002344;28;20065;-72
2022/08/20 12:27:18;;;;;;;2.85;1.27;;;30.90;99.90;;;;;;4992070;28;20057;-72
2022/08/20 12:29:46;;;;;;;3.33;1.25;;;30.80;99.90;;;;;;4991727;28;20033;-72
2022/08/20 12:32:12;;;;;;;6.03;1.20;;;30.60;99.90;;;;;;5002703;28;20060;-72
2022/08/20 12:34:40;;;;;;;2.88;1.20;;;30.50;99.90;;;;;;5002289;28;20109;-72
2022/08/20 12:37:10;;;;;;;4.32;1.30;;;30.80;99.60;;;;;;4998842;28;20044;-71
2022/08/20 12:39:39;;;;;;;2.88;1.48;;;30.60;99.70;;;;;;5003609;28;20042;-72
2022/08/20 12:42:07;;;;;;;4.75;1.70;;;30.90;99.50;;;;;;4999748;28;20034;-72
2022/08/20 12:44:33;;;;;;;5.15;1.30;;;31.80;98.50;;;;;;5000680;28;20117;-72
2022/08/20 12:47:11;;;;;;;8.93;1.50;;;32.10;98.50;;;;;;5002260;28;20512;-72
2022/08/20 12:49:38;;;;;;;2.33;1.40;;;32.70;97.70;;;;;;5003850;28;20496;-72
2022/08/20 12:52:05;;;;;;;4.55;1.45;;;31.90;97.40;;;;;;4999598;28;20565;-71
2022/08/20 12:54:31;;;;;;;4.25;1.58;;;31.60;98.30;;;;;;5002203;28;20780;-72
2022/08/20 12:56:57;;;;;;;2.88;1.42;;;30.80;98.50;;;;;;4985326;28;20073;-72
2022/08/20 12:59:24;;;;;;;1.88;1.20;;;32.30;98.00;;;;;;5000520;28;20366;-72
2022/08/20 13:01:51;;;;;;;2.28;1.23;;;32.50;97.60;;;;;;4990576;28;20493;-72